Time;durP1;ratioP1;P1;durP2;ratioP2;P2;SDS_P1;SDS_P2;PMS_P1;PMS_P2;Temp;Humidity;BMP_temperature;BMP_pressure;BME280_temperature;BME280_humidity;BME280_pressure;Samples;Min_cycle;Max_cycle;Signal;HPM_P1;HPM_P2
2023/03/24 00:03:01;;;;;;;6.50;4.10;;;;;;;11.17;67.48;99465.82;131072;1254;107491;-74
2023/03/24 00:06:12;;;;;;;5.80;3.60;;;;;;;11.17;67.91;99463.92;131256;1250;107496;-74
2023/03/24 00:09:18;;;;;;;6.10;3.70;;;;;;;11.18;67.69;99455.73;131301;1250;107259;-74
2023/03/24 00:12:24;;;;;;;6.90;3.70;;;;;;;11.23;68.17;99457.52;131034;1254;108776;-74
2023/03/24 00:15:30;;;;;;;6.30;3.80;;;;;;;11.29;67.84;99464.52;131000;1254;105744;-74
2023/03/24 00:18:35;;;;;;;6.30;4.00;;;;;;;11.32;67.84;99458.79;131083;1252;106832;-72
2023/03/24 00:21:42;;;;;;;6.30;3.70;;;;;;;11.33;67.90;99456.87;131076;1252;107696;-73
2023/03/24 00:24:48;;;;;;;6.20;4.30;;;;;;;11.33;68.05;99458.27;131007;1252;107518;-73
2023/03/24 00:27:54;;;;;;;6.40;4.00;;;;;;;11.31;67.91;99456.42;131028;1250;107366;-74
2023/03/24 00:31:00;;;;;;;7.90;4.90;;;;;;;11.28;68.00;99456.27;131046;1252;107566;-74
2023/03/24 00:34:07;;;;;;;5.80;4.00;;;;;;;11.25;67.95;99454.29;131281;1252;107396;-74
2023/03/24 00:37:13;;;;;;;6.40;4.20;;;;;;;11.20;68.09;99449.65;131173;1253;107555;-74
2023/03/24 00:40:21;;;;;;;5.30;3.80;;;;;;;11.14;67.89;99446.61;131060;1263;107522;-74
2023/03/24 00:43:28;;;;;;;5.50;3.90;;;;;;;11.08;68.29;99444.33;131079;1250;107571;-74
2023/03/24 00:46:34;;;;;;;4.40;3.70;;;;;;;11.02;68.30;99435.70;131153;1263;107356;-72
2023/03/24 00:49:43;;;;;;;4.30;3.10;;;;;;;10.94;68.36;99429.29;131099;1252;105860;-74
2023/03/24 00:52:49;;;;;;;4.30;3.00;;;;;;;10.88;68.56;99432.48;131031;1253;107507;-73
2023/03/24 00:55:55;;;;;;;5.60;3.40;;;;;;;10.83;68.50;99436.69;131196;1252;107394;-73
2023/03/24 00:59:02;;;;;;;5.50;3.50;;;;;;;10.77;68.44;99433.41;131179;1254;107251;-74
2023/03/24 01:02:10;;;;;;;4.70;3.40;;;;;;;10.71;68.29;99430.56;131193;1256;107380;-75
2023/03/24 01:05:19;;;;;;;6.10;3.50;;;;;;;10.61;68.15;99432.33;131405;1252;108481;-73
2023/03/24 01:08:27;;;;;;;4.80;3.40;;;;;;;10.52;68.45;99433.42;131196;1254;107379;-73
2023/03/24 01:11:38;;;;;;;5.40;3.50;;;;;;;10.43;68.47;99436.05;130937;1255;108666;-74
2023/03/24 01:14:45;;;;;;;5.20;3.10;;;;;;;10.34;67.86;99434.55;130925;1256;107571;-74
2023/03/24 01:17:52;;;;;;;5.60;3.20;;;;;;;10.22;68.05;99436.70;131090;1253;107446;-73
2023/03/24 01:20:57;;;;;;;5.60;3.40;;;;;;;10.13;68.32;99432.48;131035;1252;108482;-73
2023/03/24 01:24:03;;;;;;;6.40;4.50;;;;;;;10.07;68.66;99426.27;131076;1252;107442;-76
2023/03/24 01:27:09;;;;;;;5.30;3.60;;;;;;;9.99;68.51;99429.16;131252;1252;107340;-73
2023/03/24 01:30:16;;;;;;;5.40;4.00;;;;;;;9.91;68.64;99429.96;131184;1252;107578;-75
2023/03/24 01:33:22;;;;;;;5.40;4.00;;;;;;;9.81;68.71;99425.17;131383;1253;107520;-74
2023/03/24 01:36:28;;;;;;;4.60;3.50;;;;;;;9.73;68.55;99421.34;131326;1253;107359;-75
2023/03/24 01:39:34;;;;;;;5.50;3.40;;;;;;;9.65;68.60;99421.09;131305;1252;107564;-75
2023/03/24 01:42:40;;;;;;;7.00;3.60;;;;;;;9.61;68.74;99418.21;131296;1253;107563;-74
2023/03/24 01:45:57;;;;;;;8.20;4.20;;;;;;;9.59;69.03;99414.90;131316;1250;107509;-74
2023/03/24 01:49:07;;;;;;;8.30;4.90;;;;;;;9.57;68.69;99417.26;131361;1260;107540;-73
2023/03/24 01:52:17;;;;;;;7.50;4.90;;;;;;;9.53;68.88;99408.02;131289;1255;108078;-73
2023/03/24 01:55:23;;;;;;;5.70;3.80;;;;;;;9.53;69.09;99406.67;131247;1263;107465;-73
2023/03/24 01:58:33;;;;;;;6.50;3.70;;;;;;;9.49;68.80;99407.58;131233;1263;107366;-73
2023/03/24 02:02:02;;;;;;;5.20;3.60;;;;;;;9.44;68.67;99400.08;131345;1256;107335;-73
2023/03/24 02:05:32;;;;;;;5.90;3.60;;;;;;;9.41;68.86;99397.77;131390;1253;107881;-73
2023/03/24 02:08:47;;;;;;;6.20;4.20;;;;;;;9.36;68.68;99403.34;131207;1255;107439;-73
2023/03/24 02:11:53;;;;;;;5.00;3.50;;;;;;;9.28;68.58;99408.13;131373;1256;107417;-72
2023/03/24 02:14:58;;;;;;;8.90;3.70;;;;;;;9.22;68.79;99405.52;130869;1257;200908;-73
2023/03/24 02:18:17;;;;;;;5.40;3.30;;;;;;;9.16;68.83;99399.04;131069;1255;107436;-74
2023/03/24 02:22:12;;;;;;;7.40;4.80;;;;;;;9.09;69.06;99399.16;131324;1255;106674;-74
2023/03/24 02:25:43;;;;;;;11.70;6.40;;;;;;;8.98;69.11;99403.77;131245;1255;107537;-74
2023/03/24 02:28:58;;;;;;;13.40;7.20;;;;;;;8.93;69.36;99412.89;131148;1254;107531;-75
2023/03/24 02:32:22;;;;;;;11.90;6.50;;;;;;;8.84;69.31;99413.24;131162;1255;107381;-72
2023/03/24 02:35:59;;;;;;;11.60;6.70;;;;;;;8.81;69.42;99414.98;131379;1254;107527;-72
2023/03/24 02:39:32;;;;;;;11.00;6.60;;;;;;;8.82;69.57;99417.93;131064;1258;107312;-72
2023/03/24 02:42:52;;;;;;;10.80;6.10;;;;;;;8.85;69.81;99411.66;131267;1255;107517;-72
2023/03/24 02:46:12;;;;;;;8.40;5.50;;;;;;;8.89;69.95;99411.50;131312;1256;107574;-72
2023/03/24 02:49:28;;;;;;;12.20;7.90;;;;;;;8.94;70.01;99405.16;131332;1250;107560;-73
2023/03/24 02:52:39;;;;;;;12.20;7.10;;;;;;;8.96;70.15;99407.19;131224;1254;105993;-72
2023/03/24 02:55:52;;;;;;;9.60;5.80;;;;;;;8.96;70.02;99411.84;131203;1255;108745;-73
2023/03/24 02:58:59;;;;;;;;;;;;;;;8.95;70.11;99407.20;131358;1255;108679;-74
2023/03/24 03:02:10;;;;;;;8.70;6.10;;;;;;;8.93;70.22;99405.46;131009;1257;107517;-73
2023/03/24 03:05:23;;;;;;;8.60;6.50;;;;;;;8.92;70.27;99412.43;131337;1262;108763;-74
2023/03/24 03:08:32;;;;;;;9.90;6.80;;;;;;;8.91;70.66;99411.34;131217;1254;107504;-74
2023/03/24 03:11:41;;;;;;;10.50;6.10;;;;;;;8.90;70.72;99408.44;131058;1261;107448;-74
2023/03/24 03:14:51;;;;;;;10.70;6.80;;;;;;;8.88;70.92;99404.23;131196;1256;107460;-73
2023/03/24 03:18:06;;;;;;;10.70;7.40;;;;;;;8.92;71.31;99400.95;131370;1254;107522;-73
2023/03/24 03:21:15;;;;;;;12.30;7.50;;;;;;;8.98;71.47;99389.80;131371;1262;108885;-74
2023/03/24 03:24:25;;;;;;;10.70;7.20;;;;;;;9.04;71.20;99385.64;131295;1254;107489;-74
2023/03/24 03:27:37;;;;;;;10.40;7.40;;;;;;;9.07;71.15;99385.52;131234;1255;106282;-74
2023/03/24 03:30:46;;;;;;;11.20;7.70;;;;;;;9.05;71.13;99385.52;130913;1253;106013;-74
2023/03/24 03:33:59;;;;;;;12.30;6.90;;;;;;;9.03;71.24;99388.56;131133;1252;106774;-74
2023/03/24 03:37:09;;;;;;;9.80;6.50;;;;;;;9.02;71.24;99389.23;131057;1255;108607;-73
2023/03/24 03:40:20;;;;;;;11.80;8.10;;;;;;;9.00;71.25;99391.36;131057;1254;106471;-71
2023/03/24 03:43:30;;;;;;;13.80;8.60;;;;;;;9.01;71.71;99390.55;130927;1263;108031;-71
2023/03/24 03:46:36;;;;;;;8.90;6.50;;;;;;;9.02;71.48;99390.77;130909;1255;107541;-70
2023/03/24 03:49:43;;;;;;;10.70;6.60;;;;;;;9.04;71.61;99386.15;130921;1256;107386;-71
2023/03/24 03:52:51;;;;;;;12.40;7.50;;;;;;;9.07;71.67;99389.27;131321;1256;106743;-72
2023/03/24 03:55:56;;;;;;;10.90;7.20;;;;;;;9.10;71.82;99382.92;131394;1253;107673;-70
2023/03/24 03:59:03;;;;;;;11.70;8.40;;;;;;;9.15;71.85;99382.90;131134;1254;107379;-71
2023/03/24 04:02:24;;;;;;;12.40;8.00;;;;;;;9.19;72.00;99382.95;131004;1253;108640;-71
2023/03/24 04:05:34;;;;;;;10.60;7.90;;;;;;;9.21;72.11;99381.10;131125;1263;105921;-72
2023/03/24 04:09:09;;;;;;;13.00;8.80;;;;;;;9.26;72.38;99377.91;131341;1255;107328;-72
2023/03/24 04:12:45;;;;;;;13.60;8.70;;;;;;;9.32;72.32;99384.56;131183;1254;107515;-73
2023/03/24 04:16:27;;;;;;;11.60;8.50;;;;;;;9.38;72.51;99375.05;130927;1254;107596;-73
2023/03/24 04:19:54;;;;;;;13.70;8.10;;;;;;;9.38;72.54;99372.06;131162;1251;106436;-73
2023/03/24 04:23:13;;;;;;;12.20;7.80;;;;;;;9.40;73.00;99368.25;131260;1265;107494;-72
2023/03/24 04:26:27;;;;;;;19.50;10.90;;;;;;;9.45;73.08;99364.66;131249;1254;107614;-73
2023/03/24 04:29:45;;;;;;;20.00;10.30;;;;;;;9.56;73.07;99362.58;130983;1263;107386;-72
2023/03/24 04:32:57;;;;;;;20.10;11.00;;;;;;;9.68;73.15;99362.40;130909;1255;107459;-73
2023/03/24 04:36:15;;;;;;;19.40;11.30;;;;;;;9.76;73.46;99359.98;131047;1254;107471;-71
2023/03/24 04:39:33;;;;;;;14.40;9.90;;;;;;;9.83;73.31;99348.64;131172;1253;107514;-71
2023/03/24 04:42:45;;;;;;;14.60;9.50;;;;;;;9.88;73.34;99347.40;131352;1263;107412;-71
2023/03/24 04:45:52;;;;;;;13.30;9.30;;;;;;;9.89;73.54;99345.30;130990;1254;107312;-73
2023/03/24 04:49:07;;;;;;;14.90;9.00;;;;;;;9.90;73.37;99346.34;130954;1251;107568;-73
2023/03/24 04:52:15;;;;;;;12.60;8.30;;;;;;;9.89;73.32;99339.34;131074;1253;108631;-73
2023/03/24 04:55:47;;;;;;;11.10;7.50;;;;;;;9.89;73.63;99333.95;131003;1254;107555;-73
2023/03/24 04:58:53;;;;;;;10.90;7.80;;;;;;;9.90;73.94;99329.21;131015;1263;107550;-73
2023/03/24 05:01:58;;;;;;;11.00;7.90;;;;;;;9.95;73.92;99338.27;131224;1253;107476;-73
2023/03/24 05:05:21;;;;;;;12.10;7.90;;;;;;;10.01;73.42;99337.23;131229;1250;108659;-73
2023/03/24 05:08:27;;;;;;;13.20;8.30;;;;;;;10.07;73.57;99338.30;131165;1263;107466;-72
2023/03/24 05:11:33;;;;;;;11.90;8.40;;;;;;;10.11;73.37;99336.77;131076;1251;107224;-72
2023/03/24 05:14:44;;;;;;;11.50;8.50;;;;;;;10.12;73.52;99336.20;131216;1251;107501;-72
2023/03/24 05:17:51;;;;;;;12.60;8.70;;;;;;;10.13;73.59;99333.23;130964;1255;107527;-73
2023/03/24 05:20:59;;;;;;;11.00;8.10;;;;;;;10.14;73.96;99330.98;131111;1254;107376;-73
2023/03/24 05:24:05;;;;;;;11.30;7.90;;;;;;;10.14;73.98;99327.73;131046;1254;108751;-73
2023/03/24 05:27:12;;;;;;;10.70;7.10;;;;;;;10.17;74.23;99327.98;130994;1251;107478;-73
2023/03/24 05:30:19;;;;;;;10.50;7.80;;;;;;;10.22;73.99;99330.35;130918;1254;107528;-73
2023/03/24 05:33:25;;;;;;;15.30;9.40;;;;;;;10.30;74.38;99329.17;131088;1253;107610;-73
2023/03/24 05:36:31;;;;;;;15.10;9.40;;;;;;;10.41;74.29;99324.23;131029;1254;107386;-73
2023/03/24 05:39:37;;;;;;;14.60;10.20;;;;;;;10.52;74.55;99322.84;131291;1263;107416;-73
2023/03/24 05:42:51;;;;;;;15.40;10.20;;;;;;;10.61;74.47;99320.02;131109;1255;107501;-73
2023/03/24 05:45:58;;;;;;;13.00;9.00;;;;;;;10.70;74.56;99322.35;131073;1257;107422;-75
2023/03/24 05:49:08;;;;;;;12.70;8.40;;;;;;;10.76;74.81;99318.48;131380;1254;107468;-73
2023/03/24 05:52:19;;;;;;;12.80;8.40;;;;;;;10.83;74.51;99320.81;131195;1255;107466;-73
2023/03/24 05:55:26;;;;;;;12.60;8.90;;;;;;;10.91;74.92;99309.16;131401;1253;107490;-73
2023/03/24 05:58:38;;;;;;;12.50;9.40;;;;;;;11.02;74.90;99305.61;131139;1253;107563;-73
2023/03/24 06:01:43;;;;;;;15.50;9.10;;;;;;;11.15;74.67;99307.46;131200;1253;107478;-73
2023/03/24 06:04:57;;;;;;;13.10;9.30;;;;;;;11.25;74.42;99309.48;131155;1255;107473;-71
2023/03/24 06:08:04;;;;;;;15.50;9.40;;;;;;;11.32;74.77;99314.23;131256;1256;107555;-72
2023/03/24 06:11:13;;;;;;;13.20;8.90;;;;;;;11.38;75.01;99315.14;131227;1253;107495;-72
2023/03/24 06:14:26;;;;;;;12.60;9.20;;;;;;;11.40;74.83;99319.13;131090;1263;108682;-72
2023/03/24 06:17:43;;;;;;;13.10;8.50;;;;;;;11.38;75.00;99315.98;130803;1254;107514;-72
2023/03/24 06:20:56;;;;;;;12.10;8.30;;;;;;;11.37;75.43;99317.28;130951;1251;107525;-73
2023/03/24 06:24:09;;;;;;;12.60;8.60;;;;;;;11.44;75.72;99315.73;130930;1254;107458;-71
2023/03/24 06:27:17;;;;;;;11.10;8.40;;;;;;;11.51;75.64;99318.74;130941;1251;107568;-72
2023/03/24 06:30:23;;;;;;;13.60;9.40;;;;;;;11.59;75.77;99316.70;130948;1256;108015;-72
2023/03/24 06:33:29;;;;;;;13.00;8.70;;;;;;;11.67;75.74;99316.09;131105;1254;107487;-72
2023/03/24 06:36:34;;;;;;;13.60;9.00;;;;;;;11.73;75.92;99315.23;130944;1251;107469;-72
2023/03/24 06:39:40;;;;;;;11.30;8.70;;;;;;;11.76;75.78;99315.14;130996;1254;107498;-72
2023/03/24 06:42:48;;;;;;;10.30;8.10;;;;;;;11.77;75.85;99315.15;131026;1251;107463;-72
2023/03/24 06:45:54;;;;;;;12.20;7.90;;;;;;;11.77;75.74;99313.18;131244;1256;107412;-71
2023/03/24 06:49:01;;;;;;;12.20;8.10;;;;;;;11.81;75.94;99319.11;131325;1254;107450;-71
2023/03/24 06:52:07;;;;;;;13.30;8.10;;;;;;;11.89;76.13;99320.68;130929;1256;107493;-72
2023/03/24 06:55:15;;;;;;;11.20;7.90;;;;;;;11.97;76.14;99319.16;131337;1255;107473;-72
2023/03/24 06:58:21;;;;;;;12.20;7.90;;;;;;;12.03;76.28;99312.45;131381;1251;107933;-70
2023/03/24 07:01:37;;;;;;;14.70;8.50;;;;;;;12.04;76.04;99310.54;131350;1253;107554;-72
2023/03/24 07:04:59;;;;;;;12.10;8.40;;;;;;;12.02;76.41;99314.00;131441;1253;107519;-71
2023/03/24 07:08:18;;;;;;;11.60;7.80;;;;;;;12.00;76.39;99309.36;131376;1254;107659;-71
2023/03/24 07:11:30;;;;;;;10.70;7.30;;;;;;;12.00;76.44;99306.87;131041;1259;107428;-71
2023/03/24 07:14:37;;;;;;;10.50;7.60;;;;;;;12.05;76.70;99300.06;131406;1254;108642;-72
2023/03/24 07:17:44;;;;;;;11.00;8.00;;;;;;;12.16;76.93;99299.08;131339;1252;107966;-71
2023/03/24 07:20:56;;;;;;;10.10;8.10;;;;;;;12.29;76.73;99292.49;131362;1252;107499;-71
2023/03/24 07:24:02;;;;;;;11.70;8.10;;;;;;;12.40;76.90;99284.55;131212;1254;107432;-71
2023/03/24 07:27:23;;;;;;;11.10;7.80;;;;;;;12.50;76.82;99275.31;131316;1252;107603;-72
2023/03/24 07:30:30;;;;;;;11.50;8.00;;;;;;;12.59;76.96;99270.81;131340;1254;107525;-71
2023/03/24 07:33:36;;;;;;;13.00;8.20;;;;;;;12.65;76.84;99269.17;130900;1264;107365;-72
2023/03/24 07:36:42;;;;;;;11.00;7.60;;;;;;;12.69;76.82;99264.16;131071;1254;107407;-72
2023/03/24 07:39:51;;;;;;;10.10;7.20;;;;;;;12.73;76.91;99253.85;131104;1252;107561;-72
2023/03/24 07:43:01;;;;;;;16.30;10.40;;;;;;;12.79;77.01;99246.90;130999;1254;107380;-72
2023/03/24 07:46:35;;;;;;;30.50;18.70;;;;;;;12.91;77.00;99236.62;131107;1253;106598;-72
2023/03/24 07:49:40;;;;;;;50.50;32.70;;;;;;;13.01;77.14;99237.52;131283;1254;106427;-72
2023/03/24 07:52:50;;;;;;;68.40;44.20;;;;;;;13.12;76.97;99235.48;131137;1254;107467;-72
2023/03/24 07:55:57;;;;;;;59.30;42.10;;;;;;;13.23;76.92;99229.34;131061;1254;108601;-71
2023/03/24 07:59:03;;;;;;;48.20;33.80;;;;;;;13.39;76.87;99227.81;131263;1251;107388;-71
2023/03/24 08:02:27;;;;;;;26.10;19.20;;;;;;;13.52;76.74;99219.11;131338;1255;107950;-71
2023/03/24 08:05:59;;;;;;;23.70;16.80;;;;;;;13.67;76.71;99211.14;131314;1254;107501;-72
2023/03/24 08:09:10;;;;;;;16.40;12.50;;;;;;;13.84;76.56;99207.27;131163;1251;107540;-71
2023/03/24 08:12:16;;;;;;;14.70;10.90;;;;;;;13.94;76.64;99205.95;131008;1254;106745;-72
2023/03/24 08:15:22;;;;;;;15.50;11.50;;;;;;;14.00;76.30;99206.83;131147;1256;107377;-72
2023/03/24 08:18:27;;;;;;;18.30;13.20;;;;;;;14.04;76.18;99197.85;131165;1249;107281;-71
2023/03/24 08:21:33;;;;;;;18.70;13.10;;;;;;;14.07;76.21;99186.55;131059;1255;107662;-71
2023/03/24 08:24:38;;;;;;;17.90;12.20;;;;;;;14.17;76.25;99183.86;131232;1254;107359;-71
2023/03/24 08:27:45;;;;;;;15.20;10.20;;;;;;;14.39;76.27;99181.88;131162;1254;107521;-71
2023/03/24 08:30:51;;;;;;;12.00;7.80;;;;;;;14.66;76.34;99177.79;130856;1267;107287;-71
2023/03/24 08:33:57;;;;;;;10.40;7.60;;;;;;;14.94;75.99;99176.19;131261;1263;107569;-72
2023/03/24 08:37:03;;;;;;;10.30;8.20;;;;;;;15.18;75.63;99173.46;131101;1254;107396;-71
2023/03/24 08:40:13;;;;;;;10.40;7.30;;;;;;;15.37;75.52;99158.74;131156;1261;107505;-74
2023/03/24 08:43:21;;;;;;;8.70;6.50;;;;;;;15.56;75.23;99161.33;131163;1262;107275;-72
2023/03/24 08:46:27;;;;;;;8.60;6.20;;;;;;;15.80;74.93;99160.23;131100;1263;106401;-71
2023/03/24 08:49:33;;;;;;;7.60;6.10;;;;;;;16.01;74.49;99153.71;131195;1253;107535;-71
2023/03/24 08:52:40;;;;;;;7.30;5.40;;;;;;;16.22;74.61;99150.39;131248;1254;107631;-72
2023/03/24 08:55:46;;;;;;;7.10;5.60;;;;;;;16.40;74.42;99149.11;131049;1254;106528;-72
2023/03/24 08:58:52;;;;;;;8.30;5.80;;;;;;;16.54;74.22;99148.22;131032;1251;107356;-71
2023/03/24 09:01:58;;;;;;;6.10;5.30;;;;;;;16.66;73.97;99143.39;131021;1253;107369;-72
2023/03/24 09:05:03;;;;;;;7.60;5.30;;;;;;;16.74;73.42;99140.84;130987;1251;107282;-72
2023/03/24 09:08:10;;;;;;;7.20;5.20;;;;;;;16.77;73.38;99128.80;130879;1254;107680;-72
2023/03/24 09:11:18;;;;;;;7.00;5.30;;;;;;;16.82;73.28;99126.05;131090;1251;107551;-72
2023/03/24 09:14:24;;;;;;;7.60;5.60;;;;;;;16.86;72.69;99119.88;131082;1254;106570;-72
2023/03/24 09:17:29;;;;;;;7.00;5.30;;;;;;;16.92;72.91;99118.95;131170;1255;107550;-72
2023/03/24 09:20:35;;;;;;;7.30;5.50;;;;;;;17.04;72.78;99115.27;131150;1253;106002;-72
2023/03/24 09:23:41;;;;;;;7.20;5.30;;;;;;;17.12;71.79;99113.86;131075;1253;107403;-72
2023/03/24 09:26:46;;;;;;;7.00;5.30;;;;;;;17.16;71.59;99121.79;131037;1249;107658;-71
2023/03/24 09:29:52;;;;;;;8.60;5.40;;;;;;;17.22;71.27;99115.19;130943;1254;107630;-72
2023/03/24 09:32:58;;;;;;;5.90;5.20;;;;;;;17.32;71.17;99117.13;131113;1251;107256;-72
2023/03/24 09:36:06;;;;;;;6.80;5.70;;;;;;;17.38;71.00;99115.86;131189;1254;107501;-72
2023/03/24 09:39:12;;;;;;;8.20;6.00;;;;;;;17.39;70.97;99117.14;131016;1253;107601;-72
2023/03/24 09:42:22;;;;;;;8.20;5.80;;;;;;;17.35;71.17;99110.53;130915;1254;106807;-72
2023/03/24 09:45:32;;;;;;;7.10;5.60;;;;;;;17.33;70.94;99105.61;130964;1254;107451;-72
2023/03/24 09:48:44;;;;;;;6.20;5.10;;;;;;;17.27;70.86;99102.05;130926;1254;107429;-72
2023/03/24 09:51:52;;;;;;;6.60;5.50;;;;;;;17.19;70.56;99098.80;130957;1254;108761;-71
2023/03/24 09:55:01;;;;;;;6.70;5.50;;;;;;;17.16;70.01;99094.03;131067;1251;108642;-72
2023/03/24 09:58:12;;;;;;;7.40;6.00;;;;;;;17.13;69.81;99092.95;131352;1263;107514;-72
2023/03/24 10:01:18;;;;;;;7.90;6.30;;;;;;;17.07;69.89;99091.98;131152;1253;107460;-71
2023/03/24 10:04:27;;;;;;;8.20;5.90;;;;;;;16.99;69.85;99096.92;131159;1258;107278;-73
2023/03/24 10:07:43;;;;;;;7.80;6.30;;;;;;;16.89;69.71;99097.44;131217;1254;107415;-72
2023/03/24 10:10:57;;;;;;;7.90;5.80;;;;;;;16.80;69.87;99095.67;131205;1254;107418;-72
2023/03/24 10:14:15;;;;;;;7.10;6.00;;;;;;;16.75;69.91;99093.73;131041;1253;107260;-72
2023/03/24 10:17:30;;;;;;;7.80;6.40;;;;;;;16.71;69.75;99092.90;130938;1253;107420;-72
2023/03/24 10:20:42;;;;;;;8.50;6.60;;;;;;;16.65;69.83;99086.64;131053;1253;106567;-72
2023/03/24 10:23:51;;;;;;;;;;;;;;;16.60;69.97;99086.58;130987;1254;107591;-72
2023/03/24 10:27:06;;;;;;;7.40;6.10;;;;;;;16.56;69.91;99089.09;131119;1255;107493;-72
2023/03/24 10:30:19;;;;;;;7.40;5.70;;;;;;;16.51;69.82;99085.23;131200;1254;107554;-72
2023/03/24 10:33:24;;;;;;;6.80;6.00;;;;;;;16.46;70.02;99084.33;131211;1254;107529;-71
2023/03/24 10:36:31;;;;;;;10.80;6.10;;;;;;;16.42;70.18;99087.96;131210;1250;107606;-71
2023/03/24 10:39:37;;;;;;;7.60;5.40;;;;;;;16.39;70.23;99083.44;130975;1255;106568;-71
2023/03/24 10:42:43;;;;;;;6.60;5.00;;;;;;;16.37;70.17;99074.58;130966;1262;106284;-71
2023/03/24 10:45:52;;;;;;;5.70;4.90;;;;;;;16.35;70.08;99074.11;131003;1254;107481;-71
2023/03/24 10:49:09;;;;;;;7.40;4.80;;;;;;;16.33;70.02;99070.81;130954;1254;107423;-72
2023/03/24 10:52:16;;;;;;;5.90;4.30;;;;;;;16.30;69.93;99063.70;130957;1250;107282;-71
2023/03/24 10:55:24;;;;;;;6.30;4.60;;;;;;;16.27;69.76;99056.23;130984;1249;108114;-71
2023/03/24 10:58:37;;;;;;;5.40;4.20;;;;;;;16.26;69.71;99055.96;130982;1254;107466;-72
2023/03/24 11:01:42;;;;;;;5.20;4.30;;;;;;;16.26;69.78;99053.27;130948;1249;108130;-71
2023/03/24 11:04:54;;;;;;;5.20;3.90;;;;;;;16.25;69.71;99052.41;130967;1254;107433;-71
2023/03/24 11:08:24;;;;;;;4.80;3.80;;;;;;;16.25;69.57;99050.95;131059;1254;106119;-72
2023/03/24 11:11:34;;;;;;;4.10;3.70;;;;;;;16.25;69.40;99044.98;131306;1263;106545;-72
2023/03/24 11:14:45;;;;;;;4.30;3.90;;;;;;;16.29;69.09;99038.70;131104;1250;105550;-72
2023/03/24 11:17:56;;;;;;;4.40;3.60;;;;;;;16.33;68.98;99039.58;131180;1254;106863;-72
2023/03/24 11:21:04;;;;;;;4.90;3.30;;;;;;;16.45;69.16;99030.32;131138;1253;107570;-71
2023/03/24 11:24:15;;;;;;;5.40;3.70;;;;;;;16.65;68.71;99029.05;130980;1251;107253;-71
2023/03/24 11:27:21;;;;;;;5.00;3.90;;;;;;;16.89;68.39;99024.34;131161;1249;107478;-72
2023/03/24 11:30:28;;;;;;;5.40;3.60;;;;;;;17.09;68.32;99025.86;131165;1254;107466;-71
2023/03/24 11:33:41;;;;;;;6.70;4.20;;;;;;;17.32;68.50;99024.45;131015;1249;107605;-72
2023/03/24 11:36:51;;;;;;;4.90;4.10;;;;;;;17.57;68.20;99024.46;131190;1267;107515;-71
2023/03/24 11:40:17;;;;;;;5.90;3.90;;;;;;;17.77;68.05;99009.61;131108;1249;107457;-71
2023/03/24 11:43:23;;;;;;;7.00;4.10;;;;;;;17.96;67.88;99006.02;131005;1254;107460;-71
2023/03/24 11:46:29;;;;;;;6.70;4.40;;;;;;;18.09;67.53;99001.75;131015;1254;107430;-71
2023/03/24 11:49:39;;;;;;;5.20;4.30;;;;;;;18.21;67.54;98996.30;131142;1254;108667;-72
2023/03/24 11:52:50;;;;;;;6.70;5.20;;;;;;;18.38;67.60;98991.98;130912;1252;106476;-72
2023/03/24 11:56:03;;;;;;;6.20;4.90;;;;;;;18.54;66.48;98988.12;130980;1254;107503;-71
2023/03/24 11:59:20;;;;;;;6.00;4.70;;;;;;;18.65;66.55;98983.48;130960;1255;107490;-71
2023/03/24 12:02:38;;;;;;;5.80;4.50;;;;;;;18.79;66.62;98977.31;130878;1253;107572;-71
2023/03/24 12:05:50;;;;;;;5.30;3.70;;;;;;;18.91;65.98;98971.67;131008;1254;108105;-71
2023/03/24 12:09:06;;;;;;;6.10;4.40;;;;;;;18.97;65.80;98969.92;130978;1253;108809;-71
2023/03/24 12:12:25;;;;;;;5.00;4.00;;;;;;;19.01;65.37;98962.75;131159;1254;107545;-71
2023/03/24 12:15:40;;;;;;;5.00;4.00;;;;;;;19.09;65.32;98963.66;130942;1251;107513;-71
2023/03/24 12:19:04;;;;;;;4.20;3.80;;;;;;;19.17;65.22;98958.63;130949;1255;106026;-71
2023/03/24 12:22:24;;;;;;;5.40;4.10;;;;;;;19.21;64.06;98958.70;131023;1250;107271;-72
2023/03/24 12:25:42;;;;;;;4.90;3.80;;;;;;;19.22;63.94;98948.66;130955;1254;107377;-71
2023/03/24 12:28:58;;;;;;;5.50;3.90;;;;;;;19.26;64.20;98949.11;130995;1254;107537;-72
2023/03/24 12:32:15;;;;;;;4.40;3.50;;;;;;;19.33;64.14;98946.30;130973;1249;107454;-71
2023/03/24 12:35:47;;;;;;;4.40;3.50;;;;;;;19.36;63.92;98948.05;130973;1254;107382;-71
2023/03/24 12:39:04;;;;;;;4.20;3.60;;;;;;;19.40;63.79;98941.10;130945;1254;107394;-71
2023/03/24 12:42:11;;;;;;;3.80;2.90;;;;;;;19.44;63.45;98939.10;131057;1254;107498;-71
2023/03/24 12:45:35;;;;;;;5.30;3.20;;;;;;;19.47;63.02;98933.74;131048;1254;107368;-71
2023/03/24 12:48:55;;;;;;;4.90;3.20;;;;;;;19.48;63.50;98931.77;131044;1254;107392;-72
2023/03/24 12:52:17;;;;;;;5.30;3.30;;;;;;;19.51;62.72;98930.19;131117;1254;107373;-71
2023/03/24 12:55:29;;;;;;;3.50;2.90;;;;;;;19.51;62.99;98923.98;131198;1254;107365;-71
2023/03/24 12:58:42;;;;;;;3.40;2.80;;;;;;;19.55;62.53;98920.58;131098;1249;107053;-71
2023/03/24 13:01:52;;;;;;;3.50;2.50;;;;;;;19.54;62.15;98922.13;131104;1254;107412;-72
2023/03/24 13:05:04;;;;;;;3.40;2.60;;;;;;;19.55;61.93;98917.83;131127;1251;107490;-71
2023/03/24 13:08:12;;;;;;;;;;;;;;;19.54;61.76;98913.67;131127;1254;107446;-71
2023/03/24 13:11:25;;;;;;;3.30;2.30;;;;;;;19.53;61.69;98907.98;131176;1250;108120;-71
2023/03/24 13:14:36;;;;;;;2.50;2.30;;;;;;;19.54;60.81;98904.23;130931;1254;107554;-71
2023/03/24 13:17:47;;;;;;;5.10;2.40;;;;;;;19.54;61.31;98891.61;131016;1254;108634;-73
2023/03/24 13:20:56;;;;;;;3.30;2.30;;;;;;;19.60;60.80;98885.85;131184;1254;107519;-71
2023/03/24 13:24:05;;;;;;;4.50;2.60;;;;;;;19.68;60.90;98885.92;131004;1253;107372;-71
2023/03/24 13:27:19;;;;;;;2.80;2.20;;;;;;;19.73;59.96;98880.05;131017;1254;107285;-71
2023/03/24 13:30:35;;;;;;;2.40;2.00;;;;;;;19.77;59.87;98874.79;131146;1255;106757;-71
2023/03/24 13:33:43;;;;;;;2.50;2.20;;;;;;;19.87;59.86;98876.08;131015;1249;107447;-71
2023/03/24 13:36:54;;;;;;;3.10;2.10;;;;;;;19.91;59.31;98869.98;131310;1251;107561;-71
2023/03/24 13:40:03;;;;;;;6.60;2.20;;;;;;;19.94;58.99;98861.63;131135;1254;107400;-71
2023/03/24 13:43:16;;;;;;;3.30;1.90;;;;;;;19.92;58.17;98862.18;131239;1254;107473;-71
2023/03/24 13:46:21;;;;;;;2.60;2.00;;;;;;;19.94;58.74;98860.91;131207;1249;107693;-72
2023/03/24 13:49:27;;;;;;;2.40;1.90;;;;;;;19.93;57.19;98861.98;131113;1254;107518;-71
2023/03/24 13:52:38;;;;;;;1.90;1.70;;;;;;;19.87;58.22;98862.06;131263;1254;107642;-71
2023/03/24 13:55:50;;;;;;;2.20;2.00;;;;;;;19.86;58.01;98867.20;131269;1254;107496;-71
2023/03/24 13:59:23;;;;;;;2.50;1.80;;;;;;;19.83;58.36;98864.88;131080;1254;105734;-71
2023/03/24 14:03:12;;;;;;;3.00;1.90;;;;;;;19.79;58.40;98857.55;130922;1254;107663;-71
2023/03/24 14:06:39;;;;;;;3.20;2.00;;;;;;;19.73;58.29;98851.41;130604;1260;107564;-72
2023/03/24 14:09:59;;;;;;;3.00;2.40;;;;;;;19.69;57.98;98843.18;131028;1251;107250;-71
2023/03/24 14:13:19;;;;;;;4.20;3.50;;;;;;;19.64;58.37;98847.11;130945;1255;107424;-71
2023/03/24 14:16:44;;;;;;;4.10;2.90;;;;;;;19.60;58.24;98842.58;131058;1249;187605;-71
2023/03/24 14:20:21;;;;;;;4.40;3.90;;;;;;;19.51;58.11;98842.33;131032;1254;107453;-73
2023/03/24 14:23:36;;;;;;;4.10;2.60;;;;;;;19.41;58.02;98841.45;131158;1253;107527;-71
2023/03/24 14:26:42;;;;;;;3.20;2.90;;;;;;;19.32;57.78;98830.27;130945;1250;107225;-71
2023/03/24 14:29:52;;;;;;;3.20;2.50;;;;;;;19.25;57.71;98828.11;131030;1255;107281;-71
2023/03/24 14:33:00;;;;;;;18.30;11.00;;;;;;;19.19;57.74;98826.20;131234;1251;107343;-71
2023/03/24 14:36:13;;;;;;;144.20;74.10;;;;;;;19.13;58.05;98820.93;131100;1254;107396;-71
2023/03/24 14:39:27;;;;;;;28.50;14.90;;;;;;;19.08;58.14;98820.15;130958;1249;107547;-71
2023/03/24 14:43:01;;;;;;;13.00;9.10;;;;;;;19.03;58.01;98817.30;130932;1250;107658;-71